HLA weather

Lanseria Airport
Johannesburg, Gauteng, South Africa

Public forecast

Using degrees Celsius for public forecast. Weather courtesy of forecast.io.

METAR (pilot weather report)

Retrieved 2019/09/18 08:00 UTC (37 minutes ago):

FALA 180800Z 35007KT 290V050 CAVOK 26/08 Q1029 NOSIG

TAF (pilot weather forecast)

Retrieved 2019/09/18 06:12 UTC (2 hours ago):

TAF TAF FALA 180400Z 1806/1906 VRB02KT CAVOK TX32/1813Z TN14/1904Z BECMG 1807/1809 33007KT BECMG 1810/1812 VRB03KT BECMG 1814/1816 30007KT BECMG 1821/1823 VRB02KT